sensor_id;sensor_type;location;lat;lon;timestamp;temperature;humidity
75262;DHT22;63859;51.064;4.580;2023-05-23T00:01:36;14.70;99.90
75262;DHT22;63859;51.064;4.580;2023-05-23T00:04:02;14.70;99.90
75262;DHT22;63859;51.064;4.580;2023-05-23T00:06:28;14.70;99.90
75262;DHT22;63859;51.064;4.580;2023-05-23T00:08:55;14.70;99.90
75262;DHT22;63859;51.064;4.580;2023-05-23T00:11:22;14.70;99.90
75262;DHT22;63859;51.064;4.580;2023-05-23T00:13:52;14.60;99.90
75262;DHT22;63859;51.064;4.580;2023-05-23T00:16:18;14.70;99.90
75262;DHT22;63859;51.064;4.580;2023-05-23T00:18:43;14.60;99.90
75262;DHT22;63859;51.064;4.580;2023-05-23T00:21:10;14.70;99.90
75262;DHT22;63859;51.064;4.580;2023-05-23T00:23:38;14.60;99.90
75262;DHT22;63859;51.064;4.580;2023-05-23T00:26:09;14.60;99.90
75262;DHT22;63859;51.064;4.580;2023-05-23T00:28:36;14.60;99.90
75262;DHT22;63859;51.064;4.580;2023-05-23T00:31:02;14.60;99.90
75262;DHT22;63859;51.064;4.580;2023-05-23T00:33:28;14.60;99.90
75262;DHT22;63859;51.064;4.580;2023-05-23T00:35:58;14.60;99.90
75262;DHT22;63859;51.064;4.580;2023-05-23T00:38:23;14.60;99.90
75262;DHT22;63859;51.064;4.580;2023-05-23T00:40:49;14.60;99.90
75262;DHT22;63859;51.064;4.580;2023-05-23T00:43:15;14.60;99.90
75262;DHT22;63859;51.064;4.580;2023-05-23T00:45:40;14.60;99.90
75262;DHT22;63859;51.064;4.580;2023-05-23T00:48:06;14.60;99.90
75262;DHT22;63859;51.064;4.580;2023-05-23T00:50:33;14.70;99.90
75262;DHT22;63859;51.064;4.580;2023-05-23T00:53:00;14.70;99.90
75262;DHT22;63859;51.064;4.580;2023-05-23T00:55:27;14.70;99.90
75262;DHT22;63859;51.064;4.580;2023-05-23T00:57:53;14.70;99.90
75262;DHT22;63859;51.064;4.580;2023-05-23T01:00:23;14.70;99.90
75262;DHT22;63859;51.064;4.580;2023-05-23T01:02:50;14.70;99.90
75262;DHT22;63859;51.064;4.580;2023-05-23T01:05:16;14.70;99.90
75262;DHT22;63859;51.064;4.580;2023-05-23T01:07:46;14.70;99.90
75262;DHT22;63859;51.064;4.580;2023-05-23T01:10:24;14.70;99.90
75262;DHT22;63859;51.064;4.580;2023-05-23T01:13:00;14.70;99.90
75262;DHT22;63859;51.064;4.580;2023-05-23T01:15:35;14.70;99.90
75262;DHT22;63859;51.064;4.580;2023-05-23T01:20:46;14.70;99.90
75262;DHT22;63859;51.064;4.580;2023-05-23T01:28:46;14.70;99.90
75262;DHT22;63859;51.064;4.580;2023-05-23T01:31:12;14.70;99.90
75262;DHT22;63859;51.064;4.580;2023-05-23T01:33:40;14.70;99.90
75262;DHT22;63859;51.064;4.580;2023-05-23T01:36:07;14.70;99.90
75262;DHT22;63859;51.064;4.580;2023-05-23T01:38:33;14.70;99.90
75262;DHT22;63859;51.064;4.580;2023-05-23T01:40:59;14.70;99.90
75262;DHT22;63859;51.064;4.580;2023-05-23T01:43:25;14.70;99.90
75262;DHT22;63859;51.064;4.580;2023-05-23T01:45:52;14.70;99.90
75262;DHT22;63859;51.064;4.580;2023-05-23T01:48:19;14.70;99.90
75262;DHT22;63859;51.064;4.580;2023-05-23T01:50:45;14.70;99.90
75262;DHT22;63859;51.064;4.580;2023-05-23T01:53:13;14.60;99.90
75262;DHT22;63859;51.064;4.580;2023-05-23T01:55:40;14.70;99.90
75262;DHT22;63859;51.064;4.580;2023-05-23T01:58:07;14.60;99.90
75262;DHT22;63859;51.064;4.580;2023-05-23T02:00:33;14.60;99.90
75262;DHT22;63859;51.064;4.580;2023-05-23T02:02:59;14.60;99.90
75262;DHT22;63859;51.064;4.580;2023-05-23T02:05:25;14.60;99.90
75262;DHT22;63859;51.064;4.580;2023-05-23T02:07:51;14.60;99.90
75262;DHT22;63859;51.064;4.580;2023-05-23T02:10:18;14.50;99.90
75262;DHT22;63859;51.064;4.580;2023-05-23T02:12:44;14.60;99.90
75262;DHT22;63859;51.064;4.580;2023-05-23T02:15:10;14.60;99.90
75262;DHT22;63859;51.064;4.580;2023-05-23T02:17:36;14.60;99.90
75262;DHT22;63859;51.064;4.580;2023-05-23T02:20:04;14.60;99.90
75262;DHT22;63859;51.064;4.580;2023-05-23T02:22:30;14.60;99.90
75262;DHT22;63859;51.064;4.580;2023-05-23T02:24:56;14.60;99.90
75262;DHT22;63859;51.064;4.580;2023-05-23T02:27:22;14.60;99.90
75262;DHT22;63859;51.064;4.580;2023-05-23T02:29:47;14.60;99.90
75262;DHT22;63859;51.064;4.580;2023-05-23T02:32:21;14.60;99.90
75262;DHT22;63859;51.064;4.580;2023-05-23T02:34:46;14.50;99.90
75262;DHT22;63859;51.064;4.580;2023-05-23T02:37:14;14.50;99.90
75262;DHT22;63859;51.064;4.580;2023-05-23T02:39:41;14.40;99.90
75262;DHT22;63859;51.064;4.580;2023-05-23T02:42:07;14.40;99.90
75262;DHT22;63859;51.064;4.580;2023-05-23T02:44:33;14.40;99.90
75262;DHT22;63859;51.064;4.580;2023-05-23T02:46:59;14.40;99.90
75262;DHT22;63859;51.064;4.580;2023-05-23T02:49:25;14.40;99.90
75262;DHT22;63859;51.064;4.580;2023-05-23T02:51:51;14.40;99.90
75262;DHT22;63859;51.064;4.580;2023-05-23T02:54:16;14.40;99.90
75262;DHT22;63859;51.064;4.580;2023-05-23T02:56:43;14.30;99.90
75262;DHT22;63859;51.064;4.580;2023-05-23T02:59:08;14.30;99.90
75262;DHT22;63859;51.064;4.580;2023-05-23T03:01:34;14.30;99.90
75262;DHT22;63859;51.064;4.580;2023-05-23T03:04:00;14.20;99.90
75262;DHT22;63859;51.064;4.580;2023-05-23T03:06:26;14.20;99.90
75262;DHT22;63859;51.064;4.580;2023-05-23T03:08:51;14.20;99.90
75262;DHT22;63859;51.064;4.580;2023-05-23T03:11:17;14.20;99.90
75262;DHT22;63859;51.064;4.580;2023-05-23T03:13:43;14.10;99.90
75262;DHT22;63859;51.064;4.580;2023-05-23T03:16:08;14.10;99.90
75262;DHT22;63859;51.064;4.580;2023-05-23T03:18:36;14.20;99.90
75262;DHT22;63859;51.064;4.580;2023-05-23T03:21:01;14.10;99.90
75262;DHT22;63859;51.064;4.580;2023-05-23T03:23:27;14.00;99.90
75262;DHT22;63859;51.064;4.580;2023-05-23T03:25:53;14.00;99.90
75262;DHT22;63859;51.064;4.580;2023-05-23T03:28:19;14.00;99.90
75262;DHT22;63859;51.064;4.580;2023-05-23T03:30:44;14.00;99.90
75262;DHT22;63859;51.064;4.580;2023-05-23T03:33:10;14.00;99.90
75262;DHT22;63859;51.064;4.580;2023-05-23T03:35:36;14.00;99.90
75262;DHT22;63859;51.064;4.580;2023-05-23T03:38:02;13.90;99.90
75262;DHT22;63859;51.064;4.580;2023-05-23T03:40:28;13.90;99.90
75262;DHT22;63859;51.064;4.580;2023-05-23T03:43:07;13.90;99.90
75262;DHT22;63859;51.064;4.580;2023-05-23T03:45:33;13.90;99.90
75262;DHT22;63859;51.064;4.580;2023-05-23T03:47:59;13.90;99.90
75262;DHT22;63859;51.064;4.580;2023-05-23T03:50:25;14.00;99.90
75262;DHT22;63859;51.064;4.580;2023-05-23T03:52:52;14.00;99.90
75262;DHT22;63859;51.064;4.580;2023-05-23T03:55:17;14.00;99.90
75262;DHT22;63859;51.064;4.580;2023-05-23T03:57:47;14.00;99.90
75262;DHT22;63859;51.064;4.580;2023-05-23T04:00:13;14.00;99.90
75262;DHT22;63859;51.064;4.580;2023-05-23T04:02:39;14.10;99.90
75262;DHT22;63859;51.064;4.580;2023-05-23T04:05:05;14.10;99.90
75262;DHT22;63859;51.064;4.580;2023-05-23T04:07:32;14.10;99.90
75262;DHT22;63859;51.064;4.580;2023-05-23T04:10:02;14.10;99.90
75262;DHT22;63859;51.064;4.580;2023-05-23T04:12:28;14.20;99.90
75262;DHT22;63859;51.064;4.580;2023-05-23T04:14:57;14.20;99.90
75262;DHT22;63859;51.064;4.580;2023-05-23T04:17:23;14.20;99.90
75262;DHT22;63859;51.064;4.580;2023-05-23T04:19:50;14.20;99.90
75262;DHT22;63859;51.064;4.580;2023-05-23T04:22:16;14.10;99.90
75262;DHT22;63859;51.064;4.580;2023-05-23T04:24:42;14.20;99.90
75262;DHT22;63859;51.064;4.580;2023-05-23T04:27:08;14.20;99.90
75262;DHT22;63859;51.064;4.580;2023-05-23T04:29:34;14.20;99.90
75262;DHT22;63859;51.064;4.580;2023-05-23T04:32:01;14.30;99.90
75262;DHT22;63859;51.064;4.580;2023-05-23T04:34:27;14.30;99.90
75262;DHT22;63859;51.064;4.580;2023-05-23T04:36:53;14.30;99.90
75262;DHT22;63859;51.064;4.580;2023-05-23T04:39:19;14.30;99.90
75262;DHT22;63859;51.064;4.580;2023-05-23T04:41:45;14.30;99.90
75262;DHT22;63859;51.064;4.580;2023-05-23T04:44:11;14.30;99.90
75262;DHT22;63859;51.064;4.580;2023-05-23T04:46:39;14.30;99.90
75262;DHT22;63859;51.064;4.580;2023-05-23T04:49:08;14.30;99.90
75262;DHT22;63859;51.064;4.580;2023-05-23T04:51:34;14.30;99.90
75262;DHT22;63859;51.064;4.580;2023-05-23T04:54:01;14.30;99.90
75262;DHT22;63859;51.064;4.580;2023-05-23T04:56:26;14.30;99.90
75262;DHT22;63859;51.064;4.580;2023-05-23T04:58:53;14.30;99.90
75262;DHT22;63859;51.064;4.580;2023-05-23T05:01:19;14.30;99.90
75262;DHT22;63859;51.064;4.580;2023-05-23T05:03:45;14.30;99.90
75262;DHT22;63859;51.064;4.580;2023-05-23T05:06:12;14.30;99.90
75262;DHT22;63859;51.064;4.580;2023-05-23T05:08:38;14.30;99.90
75262;DHT22;63859;51.064;4.580;2023-05-23T05:11:05;14.30;99.90
75262;DHT22;63859;51.064;4.580;2023-05-23T05:13:30;14.30;99.90
75262;DHT22;63859;51.064;4.580;2023-05-23T05:15:56;14.30;99.90
75262;DHT22;63859;51.064;4.580;2023-05-23T05:18:24;14.30;99.90
75262;DHT22;63859;51.064;4.580;2023-05-23T05:20:51;14.30;99.90
75262;DHT22;63859;51.064;4.580;2023-05-23T05:23:16;14.30;99.90
75262;DHT22;63859;51.064;4.580;2023-05-23T05:25:42;14.30;99.90
75262;DHT22;63859;51.064;4.580;2023-05-23T05:28:07;14.30;99.90
75262;DHT22;63859;51.064;4.580;2023-05-23T05:30:33;14.30;99.90
75262;DHT22;63859;51.064;4.580;2023-05-23T05:33:03;14.30;99.90
75262;DHT22;63859;51.064;4.580;2023-05-23T05:35:35;14.30;99.90
75262;DHT22;63859;51.064;4.580;2023-05-23T05:38:02;14.20;99.90
75262;DHT22;63859;51.064;4.580;2023-05-23T05:40:32;14.30;99.90
75262;DHT22;63859;51.064;4.580;2023-05-23T05:42:57;14.20;99.90
75262;DHT22;63859;51.064;4.580;2023-05-23T05:45:23;14.20;99.90
75262;DHT22;63859;51.064;4.580;2023-05-23T05:47:49;14.20;99.90
75262;DHT22;63859;51.064;4.580;2023-05-23T05:50:14;14.30;99.90
75262;DHT22;63859;51.064;4.580;2023-05-23T05:52:40;14.20;99.90
75262;DHT22;63859;51.064;4.580;2023-05-23T05:55:08;14.10;99.90
75262;DHT22;63859;51.064;4.580;2023-05-23T05:57:36;14.20;99.90
75262;DHT22;63859;51.064;4.580;2023-05-23T06:00:08;14.10;99.90
75262;DHT22;63859;51.064;4.580;2023-05-23T06:02:41;14.10;99.90
75262;DHT22;63859;51.064;4.580;2023-05-23T06:05:13;14.10;99.90
75262;DHT22;63859;51.064;4.580;2023-05-23T06:07:42;14.10;99.90
75262;DHT22;63859;51.064;4.580;2023-05-23T06:10:08;14.10;99.90
75262;DHT22;63859;51.064;4.580;2023-05-23T06:12:34;14.10;99.90
75262;DHT22;63859;51.064;4.580;2023-05-23T06:15:00;14.00;99.90
75262;DHT22;63859;51.064;4.580;2023-05-23T06:17:27;14.10;99.90
75262;DHT22;63859;51.064;4.580;2023-05-23T06:19:52;14.10;99.90
75262;DHT22;63859;51.064;4.580;2023-05-23T06:22:18;14.10;99.90
75262;DHT22;63859;51.064;4.580;2023-05-23T06:24:44;14.20;99.90
75262;DHT22;63859;51.064;4.580;2023-05-23T06:27:11;14.20;99.90
75262;DHT22;63859;51.064;4.580;2023-05-23T06:29:37;14.20;99.90
75262;DHT22;63859;51.064;4.580;2023-05-23T06:32:03;14.40;99.90
75262;DHT22;63859;51.064;4.580;2023-05-23T06:34:28;14.30;99.90
75262;DHT22;63859;51.064;4.580;2023-05-23T06:36:54;14.30;99.90
75262;DHT22;63859;51.064;4.580;2023-05-23T06:39:20;14.30;99.90
75262;DHT22;63859;51.064;4.580;2023-05-23T06:41:46;14.30;99.90
75262;DHT22;63859;51.064;4.580;2023-05-23T06:44:12;14.40;99.90
75262;DHT22;63859;51.064;4.580;2023-05-23T06:46:37;14.40;99.90
75262;DHT22;63859;51.064;4.580;2023-05-23T06:49:03;14.50;99.90
75262;DHT22;63859;51.064;4.580;2023-05-23T06:51:29;14.40;99.90
75262;DHT22;63859;51.064;4.580;2023-05-23T06:53:55;14.40;99.90
75262;DHT22;63859;51.064;4.580;2023-05-23T06:56:22;14.40;99.90
75262;DHT22;63859;51.064;4.580;2023-05-23T06:58:48;14.40;99.90
75262;DHT22;63859;51.064;4.580;2023-05-23T07:01:14;14.50;99.90
75262;DHT22;63859;51.064;4.580;2023-05-23T07:03:39;14.50;99.90
75262;DHT22;63859;51.064;4.580;2023-05-23T07:06:07;14.60;99.90
75262;DHT22;63859;51.064;4.580;2023-05-23T07:08:33;14.70;99.90
75262;DHT22;63859;51.064;4.580;2023-05-23T07:10:59;14.70;99.90
75262;DHT22;63859;51.064;4.580;2023-05-23T07:13:24;14.80;99.90
75262;DHT22;63859;51.064;4.580;2023-05-23T07:15:50;14.80;99.90
75262;DHT22;63859;51.064;4.580;2023-05-23T07:20:47;15.10;99.90
75262;DHT22;63859;51.064;4.580;2023-05-23T07:23:14;15.30;99.90
75262;DHT22;63859;51.064;4.580;2023-05-23T07:25:40;15.40;99.90
75262;DHT22;63859;51.064;4.580;2023-05-23T07:28:07;15.50;99.90
75262;DHT22;63859;51.064;4.580;2023-05-23T07:30:33;15.60;99.90
75262;DHT22;63859;51.064;4.580;2023-05-23T07:32:59;15.70;99.90
75262;DHT22;63859;51.064;4.580;2023-05-23T07:35:24;15.60;99.90
75262;DHT22;63859;51.064;4.580;2023-05-23T07:37:51;15.40;99.90
75262;DHT22;63859;51.064;4.580;2023-05-23T07:40:17;15.20;99.90
75262;DHT22;63859;51.064;4.580;2023-05-23T07:42:43;15.20;99.90
75262;DHT22;63859;51.064;4.580;2023-05-23T07:45:10;15.30;99.90
75262;DHT22;63859;51.064;4.580;2023-05-23T07:47:35;15.40;99.90
75262;DHT22;63859;51.064;4.580;2023-05-23T07:50:01;15.50;99.90
75262;DHT22;63859;51.064;4.580;2023-05-23T07:52:30;15.50;99.90
75262;DHT22;63859;51.064;4.580;2023-05-23T07:54:56;15.60;99.90
75262;DHT22;63859;51.064;4.580;2023-05-23T07:57:22;15.60;99.90
75262;DHT22;63859;51.064;4.580;2023-05-23T07:59:49;15.80;99.90
75262;DHT22;63859;51.064;4.580;2023-05-23T08:02:16;15.80;99.90
75262;DHT22;63859;51.064;4.580;2023-05-23T08:04:41;15.90;99.90
75262;DHT22;63859;51.064;4.580;2023-05-23T08:07:07;15.90;99.90
75262;DHT22;63859;51.064;4.580;2023-05-23T08:09:34;16.00;99.90
75262;DHT22;63859;51.064;4.580;2023-05-23T08:12:00;16.20;99.90
75262;DHT22;63859;51.064;4.580;2023-05-23T08:14:26;16.20;99.90
75262;DHT22;63859;51.064;4.580;2023-05-23T08:16:52;16.00;99.90
75262;DHT22;63859;51.064;4.580;2023-05-23T08:19:17;16.00;99.90
75262;DHT22;63859;51.064;4.580;2023-05-23T08:21:43;15.90;99.90
75262;DHT22;63859;51.064;4.580;2023-05-23T08:24:09;15.90;99.90
75262;DHT22;63859;51.064;4.580;2023-05-23T08:26:35;16.00;99.90
75262;DHT22;63859;51.064;4.580;2023-05-23T08:29:02;16.10;99.90
75262;DHT22;63859;51.064;4.580;2023-05-23T08:31:28;16.10;99.90
75262;DHT22;63859;51.064;4.580;2023-05-23T08:33:54;16.00;99.90
75262;DHT22;63859;51.064;4.580;2023-05-23T08:36:20;16.00;99.90
75262;DHT22;63859;51.064;4.580;2023-05-23T08:38:46;15.90;99.90
75262;DHT22;63859;51.064;4.580;2023-05-23T08:41:19;15.80;99.90
75262;DHT22;63859;51.064;4.580;2023-05-23T08:43:46;15.80;99.90
75262;DHT22;63859;51.064;4.580;2023-05-23T08:46:12;15.90;99.90
75262;DHT22;63859;51.064;4.580;2023-05-23T08:48:38;15.90;99.90
75262;DHT22;63859;51.064;4.580;2023-05-23T08:51:04;15.80;99.90
75262;DHT22;63859;51.064;4.580;2023-05-23T08:53:32;15.80;99.90
75262;DHT22;63859;51.064;4.580;2023-05-23T08:55:59;15.70;99.90
75262;DHT22;63859;51.064;4.580;2023-05-23T08:58:31;15.60;99.90
75262;DHT22;63859;51.064;4.580;2023-05-23T09:00:59;15.60;99.90
75262;DHT22;63859;51.064;4.580;2023-05-23T09:03:29;15.60;99.90
75262;DHT22;63859;51.064;4.580;2023-05-23T09:05:55;15.70;99.90
75262;DHT22;63859;51.064;4.580;2023-05-23T09:08:22;15.70;99.90
75262;DHT22;63859;51.064;4.580;2023-05-23T09:10:49;15.70;99.90
75262;DHT22;63859;51.064;4.580;2023-05-23T09:13:16;15.70;99.90
75262;DHT22;63859;51.064;4.580;2023-05-23T09:18:25;15.80;99.90
75262;DHT22;63859;51.064;4.580;2023-05-23T09:20:51;15.80;99.90
75262;DHT22;63859;51.064;4.580;2023-05-23T09:23:17;15.80;99.90
75262;DHT22;63859;51.064;4.580;2023-05-23T09:25:46;15.80;99.90
75262;DHT22;63859;51.064;4.580;2023-05-23T09:28:12;15.80;99.90
75262;DHT22;63859;51.064;4.580;2023-05-23T09:30:38;15.80;99.90
75262;DHT22;63859;51.064;4.580;2023-05-23T09:33:04;16.00;99.90
75262;DHT22;63859;51.064;4.580;2023-05-23T09:35:30;16.00;99.90
75262;DHT22;63859;51.064;4.580;2023-05-23T09:37:57;16.10;99.90
75262;DHT22;63859;51.064;4.580;2023-05-23T09:40:31;16.10;99.90
75262;DHT22;63859;51.064;4.580;2023-05-23T09:43:03;16.00;99.90
75262;DHT22;63859;51.064;4.580;2023-05-23T09:45:31;15.90;99.90
75262;DHT22;63859;51.064;4.580;2023-05-23T09:47:57;15.80;99.90
75262;DHT22;63859;51.064;4.580;2023-05-23T09:50:24;15.70;99.90
75262;DHT22;63859;51.064;4.580;2023-05-23T09:52:50;15.50;99.90
75262;DHT22;63859;51.064;4.580;2023-05-23T09:55:18;15.70;99.90
75262;DHT22;63859;51.064;4.580;2023-05-23T09:57:45;15.90;99.90
75262;DHT22;63859;51.064;4.580;2023-05-23T10:00:14;16.10;99.90
75262;DHT22;63859;51.064;4.580;2023-05-23T10:03:10;16.20;99.90
75262;DHT22;63859;51.064;4.580;2023-05-23T10:05:47;16.40;99.90
75262;DHT22;63859;51.064;4.580;2023-05-23T10:08:35;16.50;99.90
75262;DHT22;63859;51.064;4.580;2023-05-23T10:13:43;16.40;99.90
75262;DHT22;63859;51.064;4.580;2023-05-23T10:16:52;16.30;99.90
75262;DHT22;63859;51.064;4.580;2023-05-23T10:19:19;16.30;99.90
75262;DHT22;63859;51.064;4.580;2023-05-23T10:21:50;16.30;99.90
75262;DHT22;63859;51.064;4.580;2023-05-23T10:24:18;16.50;99.90
75262;DHT22;63859;51.064;4.580;2023-05-23T10:26:45;16.60;99.90
75262;DHT22;63859;51.064;4.580;2023-05-23T10:29:10;16.70;99.90
75262;DHT22;63859;51.064;4.580;2023-05-23T10:31:37;17.10;99.90
75262;DHT22;63859;51.064;4.580;2023-05-23T10:37:06;17.70;99.90
75262;DHT22;63859;51.064;4.580;2023-05-23T10:39:53;17.70;99.90
75262;DHT22;63859;51.064;4.580;2023-05-23T10:45:22;18.00;99.90
75262;DHT22;63859;51.064;4.580;2023-05-23T10:47:51;18.00;99.90
75262;DHT22;63859;51.064;4.580;2023-05-23T10:50:33;17.90;99.90
75262;DHT22;63859;51.064;4.580;2023-05-23T10:53:00;17.80;99.90
75262;DHT22;63859;51.064;4.580;2023-05-23T10:55:31;18.20;99.90
75262;DHT22;63859;51.064;4.580;2023-05-23T10:58:19;18.30;99.90
75262;DHT22;63859;51.064;4.580;2023-05-23T11:01:07;18.20;99.90
75262;DHT22;63859;51.064;4.580;2023-05-23T11:06:36;18.50;99.90
75262;DHT22;63859;51.064;4.580;2023-05-23T11:09:09;18.50;99.90
75262;DHT22;63859;51.064;4.580;2023-05-23T11:14:17;18.20;99.90
75262;DHT22;63859;51.064;4.580;2023-05-23T11:16:44;18.10;99.90
75262;DHT22;63859;51.064;4.580;2023-05-23T11:21:48;18.20;99.90
75262;DHT22;63859;51.064;4.580;2023-05-23T11:24:14;18.00;99.90
75262;DHT22;63859;51.064;4.580;2023-05-23T11:29:18;18.50;99.90
75262;DHT22;63859;51.064;4.580;2023-05-23T11:31:43;18.80;99.90
75262;DHT22;63859;51.064;4.580;2023-05-23T11:34:11;19.10;99.90
75262;DHT22;63859;51.064;4.580;2023-05-23T11:36:38;19.50;99.90
75262;DHT22;63859;51.064;4.580;2023-05-23T11:39:05;19.20;99.90
75262;DHT22;63859;51.064;4.580;2023-05-23T11:41:31;19.00;99.90
75262;DHT22;63859;51.064;4.580;2023-05-23T11:43:58;18.90;99.90
75262;DHT22;63859;51.064;4.580;2023-05-23T11:46:26;18.70;99.90
75262;DHT22;63859;51.064;4.580;2023-05-23T11:48:51;18.80;99.90
75262;DHT22;63859;51.064;4.580;2023-05-23T11:51:17;18.90;99.90
75262;DHT22;63859;51.064;4.580;2023-05-23T11:53:45;18.80;99.90
75262;DHT22;63859;51.064;4.580;2023-05-23T11:56:13;19.00;99.90
75262;DHT22;63859;51.064;4.580;2023-05-23T11:58:39;19.30;99.90
75262;DHT22;63859;51.064;4.580;2023-05-23T12:01:08;19.30;99.90
75262;DHT22;63859;51.064;4.580;2023-05-23T12:03:44;19.30;99.90
75262;DHT22;63859;51.064;4.580;2023-05-23T12:06:11;19.50;99.90
75262;DHT22;63859;51.064;4.580;2023-05-23T12:08:38;19.90;99.90
75262;DHT22;63859;51.064;4.580;2023-05-23T12:11:04;19.80;99.90
75262;DHT22;63859;51.064;4.580;2023-05-23T12:13:30;19.50;99.90
75262;DHT22;63859;51.064;4.580;2023-05-23T12:15:57;19.40;99.90
75262;DHT22;63859;51.064;4.580;2023-05-23T12:18:27;19.60;99.90
75262;DHT22;63859;51.064;4.580;2023-05-23T12:20:53;19.70;99.90
75262;DHT22;63859;51.064;4.580;2023-05-23T12:23:22;19.70;99.90
75262;DHT22;63859;51.064;4.580;2023-05-23T12:25:52;19.50;99.90
75262;DHT22;63859;51.064;4.580;2023-05-23T12:28:19;19.30;99.90
75262;DHT22;63859;51.064;4.580;2023-05-23T12:30:45;19.40;99.90
75262;DHT22;63859;51.064;4.580;2023-05-23T12:33:11;19.90;99.90
75262;DHT22;63859;51.064;4.580;2023-05-23T12:35:42;20.30;99.90
75262;DHT22;63859;51.064;4.580;2023-05-23T12:38:09;20.50;99.00
75262;DHT22;63859;51.064;4.580;2023-05-23T12:40:34;20.30;99.60
75262;DHT22;63859;51.064;4.580;2023-05-23T12:43:00;20.10;99.60
75262;DHT22;63859;51.064;4.580;2023-05-23T12:45:34;19.90;97.60
75262;DHT22;63859;51.064;4.580;2023-05-23T12:48:01;19.80;97.20
75262;DHT22;63859;51.064;4.580;2023-05-23T12:50:27;19.90;99.20
75262;DHT22;63859;51.064;4.580;2023-05-23T12:52:52;19.70;98.70
75262;DHT22;63859;51.064;4.580;2023-05-23T12:55:18;19.80;99.30
75262;DHT22;63859;51.064;4.580;2023-05-23T12:57:44;20.00;99.90
75262;DHT22;63859;51.064;4.580;2023-05-23T13:00:10;20.30;96.10
75262;DHT22;63859;51.064;4.580;2023-05-23T13:02:36;20.30;95.40
75262;DHT22;63859;51.064;4.580;2023-05-23T13:05:02;20.40;96.10
75262;DHT22;63859;51.064;4.580;2023-05-23T13:07:28;20.20;96.20
75262;DHT22;63859;51.064;4.580;2023-05-23T13:09:53;20.00;98.00
75262;DHT22;63859;51.064;4.580;2023-05-23T13:12:19;19.70;98.10
75262;DHT22;63859;51.064;4.580;2023-05-23T13:14:45;19.60;98.60
75262;DHT22;63859;51.064;4.580;2023-05-23T13:17:11;19.80;98.20
75262;DHT22;63859;51.064;4.580;2023-05-23T13:19:37;20.20;97.70
75262;DHT22;63859;51.064;4.580;2023-05-23T13:22:05;20.60;97.50
75262;DHT22;63859;51.064;4.580;2023-05-23T13:24:38;20.60;95.80
75262;DHT22;63859;51.064;4.580;2023-05-23T13:27:05;20.80;96.20
75262;DHT22;63859;51.064;4.580;2023-05-23T13:29:31;21.00;94.50
75262;DHT22;63859;51.064;4.580;2023-05-23T13:31:57;20.80;95.50
75262;DHT22;63859;51.064;4.580;2023-05-23T13:34:24;20.70;95.90
75262;DHT22;63859;51.064;4.580;2023-05-23T13:36:49;21.00;95.60
75262;DHT22;63859;51.064;4.580;2023-05-23T13:39:15;21.10;93.20
75262;DHT22;63859;51.064;4.580;2023-05-23T13:41:41;21.30;93.10
75262;DHT22;63859;51.064;4.580;2023-05-23T13:44:06;21.50;93.00
75262;DHT22;63859;51.064;4.580;2023-05-23T13:46:32;21.80;92.00
75262;DHT22;63859;51.064;4.580;2023-05-23T13:48:58;21.90;92.50
75262;DHT22;63859;51.064;4.580;2023-05-23T13:51:23;21.90;92.50
75262;DHT22;63859;51.064;4.580;2023-05-23T13:53:49;21.90;92.00
75262;DHT22;63859;51.064;4.580;2023-05-23T13:56:15;21.70;93.30
75262;DHT22;63859;51.064;4.580;2023-05-23T13:58:41;21.40;93.40
75262;DHT22;63859;51.064;4.580;2023-05-23T14:01:11;21.70;93.30
75262;DHT22;63859;51.064;4.580;2023-05-23T14:03:37;21.50;92.30
75262;DHT22;63859;51.064;4.580;2023-05-23T14:06:02;21.30;91.80
75262;DHT22;63859;51.064;4.580;2023-05-23T14:08:29;21.20;91.60
75262;DHT22;63859;51.064;4.580;2023-05-23T14:10:55;21.10;91.90
75262;DHT22;63859;51.064;4.580;2023-05-23T14:13:21;21.40;92.10
75262;DHT22;63859;51.064;4.580;2023-05-23T14:15:49;21.80;90.00
75262;DHT22;63859;51.064;4.580;2023-05-23T14:18:15;21.90;87.80
75262;DHT22;63859;51.064;4.580;2023-05-23T14:20:40;21.50;87.80
75262;DHT22;63859;51.064;4.580;2023-05-23T14:23:06;21.30;91.20
75262;DHT22;63859;51.064;4.580;2023-05-23T14:25:32;21.20;90.50
75262;DHT22;63859;51.064;4.580;2023-05-23T14:27:57;21.40;90.40
75262;DHT22;63859;51.064;4.580;2023-05-23T14:30:23;21.60;89.50
75262;DHT22;63859;51.064;4.580;2023-05-23T14:32:49;21.50;88.50
75262;DHT22;63859;51.064;4.580;2023-05-23T14:35:14;21.50;87.70
75262;DHT22;63859;51.064;4.580;2023-05-23T14:37:41;21.50;90.10
75262;DHT22;63859;51.064;4.580;2023-05-23T14:40:07;21.80;90.10
75262;DHT22;63859;51.064;4.580;2023-05-23T14:42:37;22.10;86.50
75262;DHT22;63859;51.064;4.580;2023-05-23T14:45:03;22.20;88.50
75262;DHT22;63859;51.064;4.580;2023-05-23T14:47:29;22.50;84.60
75262;DHT22;63859;51.064;4.580;2023-05-23T14:49:56;22.70;86.10
75262;DHT22;63859;51.064;4.580;2023-05-23T14:52:22;23.00;83.50
75262;DHT22;63859;51.064;4.580;2023-05-23T14:54:47;23.10;82.30
75262;DHT22;63859;51.064;4.580;2023-05-23T14:57:13;22.90;82.80
75262;DHT22;63859;51.064;4.580;2023-05-23T14:59:39;23.00;82.80
75262;DHT22;63859;51.064;4.580;2023-05-23T15:02:04;23.10;83.50
75262;DHT22;63859;51.064;4.580;2023-05-23T15:04:32;23.20;81.90
75262;DHT22;63859;51.064;4.580;2023-05-23T15:06:58;23.30;82.30
75262;DHT22;63859;51.064;4.580;2023-05-23T15:09:25;23.40;81.60
75262;DHT22;63859;51.064;4.580;2023-05-23T15:11:51;23.40;79.10
75262;DHT22;63859;51.064;4.580;2023-05-23T15:14:17;23.10;76.60
75262;DHT22;63859;51.064;4.580;2023-05-23T15:16:44;23.30;76.00
75262;DHT22;63859;51.064;4.580;2023-05-23T15:19:10;23.30;77.90
75262;DHT22;63859;51.064;4.580;2023-05-23T15:21:35;23.60;78.20
75262;DHT22;63859;51.064;4.580;2023-05-23T15:24:01;23.60;76.30
75262;DHT22;63859;51.064;4.580;2023-05-23T15:26:28;23.30;77.70
75262;DHT22;63859;51.064;4.580;2023-05-23T15:28:53;23.40;78.30
75262;DHT22;63859;51.064;4.580;2023-05-23T15:31:19;23.40;76.90
75262;DHT22;63859;51.064;4.580;2023-05-23T15:33:45;23.50;76.00
75262;DHT22;63859;51.064;4.580;2023-05-23T15:36:12;23.10;75.10
75262;DHT22;63859;51.064;4.580;2023-05-23T15:38:38;23.00;77.80
75262;DHT22;63859;51.064;4.580;2023-05-23T15:41:04;22.80;77.70
75262;DHT22;63859;51.064;4.580;2023-05-23T15:43:31;22.90;78.00
75262;DHT22;63859;51.064;4.580;2023-05-23T15:45:57;23.20;78.20
75262;DHT22;63859;51.064;4.580;2023-05-23T15:48:23;23.30;76.70
75262;DHT22;63859;51.064;4.580;2023-05-23T15:50:48;23.30;75.10
75262;DHT22;63859;51.064;4.580;2023-05-23T15:53:14;23.00;74.20
75262;DHT22;63859;51.064;4.580;2023-05-23T15:55:40;23.00;75.80
75262;DHT22;63859;51.064;4.580;2023-05-23T15:58:06;23.50;77.00
75262;DHT22;63859;51.064;4.580;2023-05-23T16:00:31;23.50;74.40
75262;DHT22;63859;51.064;4.580;2023-05-23T16:02:57;23.80;75.70